Lübeck Blankensee Airport EDHL

Flugplatz Daten

Name: Lübeck Blankensee Airport

Ident: EDHL

Lat: 53,80540085

Long: 10,71920013

Platzhöhe: 53 ft

IataCode: LBC

City: Lübeck

Metar

2021/10/25 23:20
EDHL 252320Z AUTO VRB02KT 9999 // SCT017/// OVC056/// 10/07 Q1015

Taf

Gewünschte Webcam nicht vorhanden? Dann fügen Sie eine hinzu. Sie wird dann so schnell wie möglich freigeschaltet
Url: Title: